Rockport, California
Current Conditions -  °F | °C
As of 7:56 AM on Thursday 29 Jan 2015 (Local Time) from KUKI Reporting Station
Clear Clear  
Wind Chill: 39°   Ceiling: Unl
Heat Index: 39°   Visibility: 10mi
Dew Point: 36°   Wind: 0mph
Humidity: 89%   Direction: NA
Pressure: 30.19"   Gusts: NA
Location:  39.6631°N, 123.734°W
Report Text: KUKI 291556Z AUTO 00000KT 10SM CLR 04/02 A3019 RMK AO2 SLP220 T00390022
Loading
Personal Weather Stations






























Interactive Weather Map New forecast layout! Learn more

10-Day Weather Forecast

Advertisements
Track Severe Weather on mobile